MT WASHINGTON (MTW)

Elevation: 920' · LOS ANGELES R basin · Operator: Los Angeles County Fire Dept

Query executed Tuesday at 18:34:03   clock

Provisional data, subject to change.
Select a sensor type for a plot of data.

Earlier

Date   /   Time   RAIN     TEMP     REL HUM     BAR PRE     FUEL MS     FUEL TP     WIND SP     WIND DR     PEAK WS     PEAK WD     SOLAR R     BAT VOL    
(PDT)INCHES   DEG F   %   INCHES   %   DEG F   MPH   DEG   MPH   DEG   W/M^2   VOLTS  
05/30/2016 19:00 3.69 61 73 -- 11 61 -- -- -- -- 13.00 12.5
05/30/2016 20:00 3.69 59 80 -- 13 58 -- -- -- -- 0.00 12.5
05/30/2016 21:00 3.69 57 86 -- 14 56 -- -- -- -- 0.00 12.5
05/30/2016 22:00 3.69 56 90 -- 16 55 -- -- -- -- 0.00 12.5
05/30/2016 23:00 3.69 56 91 -- 17 55 -- -- -- -- 0.00 12.5
05/31/2016 00:00 3.69 55 92 -- 18 54 -- -- -- -- 0.00 12.4
05/31/2016 01:00 3.69 55 93 -- 20 54 -- -- -- -- 0.00 12.4
05/31/2016 02:00 3.69 55 93 -- 21 55 -- -- -- -- 0.00 12.4
05/31/2016 03:00 3.69 55 94 -- 20 56 -- -- -- -- 0.00 12.4
05/31/2016 04:00 3.69 56 94 -- 20 56 -- -- -- -- 0.00 12.3
05/31/2016 05:00 3.69 56 94 -- 19 57 -- -- -- -- 1.00 12.3
05/31/2016 06:00 3.69 56 93 -- 19 57 -- -- -- -- 13.00 12.3
05/31/2016 07:00 3.69 58 91 -- 18 59 -- -- -- -- 48.00 12.7
05/31/2016 08:00 3.69 59 84 -- 17 62 -- -- -- -- 99.00 13.1
05/31/2016 09:00 3.69 61 79 -- 16 65 -- -- -- -- 169.00 13.5
05/31/2016 10:00 3.69 64 71 -- 15 72 -- -- -- -- 356.00 13.6
05/31/2016 11:00 3.69 68 63 -- 13 86 -- -- -- -- 862.00 13.6
05/31/2016 12:00 3.69 71 57 -- 11 89 -- -- -- -- 910.00 13.6
05/31/2016 13:00 3.69 74 52 -- 10 91 -- -- -- -- 898.00 13.5
05/31/2016 14:00 3.69 75 51 -- 10 82 -- -- -- -- 828.00 13.6
05/31/2016 15:00 3.69 74 52 -- 9 80 -- -- -- -- 631.00 13.6
05/31/2016 16:00 3.69 71 60 -- 10 72 -- -- -- -- 312.00 13.6
05/31/2016 17:00 3.69 67 67 -- 11 68 -- -- -- -- 165.00 13.4
05/31/2016 18:00 -- -- -- -- -- -- -- -- -- -- -- --

Later | Latest

Warning! This data is preliminary and subject to revision.

Show MTW Map | 24 Hours MTW Data | Plot all MTW Sensors | Daily MTW Data | MTW Info